TVF60HA LFPO-LGSA
Flight info
| Callsign | TVF60HA |
|---|---|
| Flight time | 3h 1m |
| Altitude | 37000 |
| Route | BUBLI DCT LUVAL DCT BEGAR DCT TRA/N0440F390 DCT SUXAN DCT ROSKA DCT ROTAR DCT VAKSU DCT DIMIS/N0426F370 DCT KOR/N0406F310 UY115 DDM UY151 EKTOS/N0399F290 UY151 IXIMA UL612 RUSOS |
| Aircraft | A320/M-SBDE2E3FGHIJ1J5M1P2RWYZ/LB1D1G1 |
Departure
| Time | 2026-05-05 04:10 |
|---|---|
| Airport | Paris-Orly Airport (LFPO) |
Arrival
| Time | 2026-05-05 07:11 |
|---|---|
| Airport | Chania International Airport (LGSA) |
| Time | Latitude | Longitude | Altitude | Speed | Heading |
|---|---|---|---|---|---|
| 2026-05-05 03:44 | 48.72703 | 2.36665 | 282 ft | 0 kts | 22° |
| 2026-05-05 04:02 | 48.72692 | 2.36658 | 288 ft | 4 kts | 22° |
| 2026-05-05 04:02 | 48.72667 | 2.36643 | 288 ft | 4 kts | 22° |
| 2026-05-05 04:02 | 48.72648 | 2.36630 | 284 ft | 4 kts | 13° |
| 2026-05-05 04:03 | 48.72623 | 2.36633 | 285 ft | 4 kts | 343° |
| 2026-05-05 04:03 | 48.72600 | 2.36646 | 287 ft | 4 kts | 314° |
| 2026-05-05 04:03 | 48.72594 | 2.36674 | 287 ft | 3 kts | 248° |
| 2026-05-05 04:03 | 48.72600 | 2.36694 | 288 ft | 0 kts | 248° |
| 2026-05-05 04:05 | 48.72596 | 2.36679 | 288 ft | 6 kts | 248° |
| 2026-05-05 04:05 | 48.72569 | 2.36571 | 286 ft | 13 kts | 253° |
| 2026-05-05 04:06 | 48.72547 | 2.36448 | 286 ft | 12 kts | 255° |
| 2026-05-05 04:06 | 48.72527 | 2.36337 | 287 ft | 10 kts | 254° |
| 2026-05-05 04:06 | 48.72508 | 2.36247 | 285 ft | 7 kts | 242° |
| 2026-05-05 04:06 | 48.72462 | 2.36230 | 286 ft | 9 kts | 169° |
| 2026-05-05 04:07 | 48.72391 | 2.36260 | 286 ft | 10 kts | 165° |
| 2026-05-05 04:07 | 48.72326 | 2.36290 | 284 ft | 9 kts | 160° |
| 2026-05-05 04:07 | 48.72273 | 2.36345 | 287 ft | 12 kts | 133° |
| 2026-05-05 04:07 | 48.72228 | 2.36446 | 285 ft | 11 kts | 118° |
| 2026-05-05 04:08 | 48.72197 | 2.36518 | 287 ft | 7 kts | 141° |
| 2026-05-05 04:08 | 48.72158 | 2.36541 | 285 ft | 5 kts | 163° |
| 2026-05-05 04:08 | 48.72118 | 2.36559 | 288 ft | 6 kts | 163° |
| 2026-05-05 04:08 | 48.72087 | 2.36581 | 288 ft | 6 kts | 135° |
| 2026-05-05 04:09 | 48.72084 | 2.36634 | 288 ft | 4 kts | 76° |
| 2026-05-05 04:09 | 48.72107 | 2.36762 | 287 ft | 37 kts | 75° |
| 2026-05-05 04:09 | 48.72248 | 2.37522 | 284 ft | 109 kts | 75° |
| 2026-05-05 04:09 | 48.72510 | 2.38892 | 323 ft | 157 kts | 72° |
| 2026-05-05 04:10 | 48.72807 | 2.40478 | 1056 ft | 155 kts | 73° |
| 2026-05-05 04:10 | 48.73090 | 2.42023 | 1864 ft | 154 kts | 73° |
| 2026-05-05 04:10 | 48.73372 | 2.43572 | 2617 ft | 152 kts | 74° |
| 2026-05-05 04:10 | 48.73654 | 2.45110 | 3318 ft | 151 kts | 74° |
| 2026-05-05 04:11 | 48.73944 | 2.46692 | 3795 ft | 165 kts | 75° |
| 2026-05-05 04:11 | 48.74125 | 2.48528 | 4118 ft | 188 kts | 84° |
| 2026-05-05 04:11 | 48.74209 | 2.50637 | 4453 ft | 213 kts | 86° |
| 2026-05-05 04:11 | 48.74278 | 2.53010 | 4892 ft | 238 kts | 86° |
| 2026-05-05 04:12 | 48.74364 | 2.55635 | 5424 ft | 258 kts | 85° |
| 2026-05-05 04:12 | 48.74533 | 2.58384 | 6282 ft | 265 kts | 83° |
| 2026-05-05 04:12 | 48.74744 | 2.61143 | 7160 ft | 269 kts | 83° |
| 2026-05-05 04:12 | 48.74981 | 2.63982 | 8053 ft | 274 kts | 83° |
| 2026-05-05 04:13 | 48.75225 | 2.66876 | 8918 ft | 280 kts | 83° |
| 2026-05-05 04:13 | 48.75472 | 2.69820 | 9824 ft | 284 kts | 83° |
| 2026-05-05 04:13 | 48.75716 | 2.72859 | 10348 ft | 301 kts | 83° |
| 2026-05-05 04:13 | 48.75971 | 2.76138 | 10698 ft | 323 kts | 83° |
| 2026-05-05 04:14 | 48.76234 | 2.79568 | 11354 ft | 332 kts | 84° |
| 2026-05-05 04:14 | 48.76501 | 2.83070 | 12134 ft | 337 kts | 84° |
| 2026-05-05 04:14 | 48.76772 | 2.86627 | 12897 ft | 342 kts | 84° |
| 2026-05-05 04:14 | 48.77044 | 2.90238 | 13654 ft | 348 kts | 84° |
| 2026-05-05 04:15 | 48.77314 | 2.93854 | 14314 ft | 352 kts | 84° |
| 2026-05-05 04:15 | 48.77591 | 2.97557 | 15008 ft | 355 kts | 84° |
| 2026-05-05 04:15 | 48.77935 | 3.01275 | 15724 ft | 358 kts | 82° |
| 2026-05-05 04:15 | 48.78364 | 3.05007 | 16438 ft | 361 kts | 81° |
| 2026-05-05 04:16 | 48.78839 | 3.08767 | 17113 ft | 365 kts | 80° |
| 2026-05-05 04:16 | 48.79329 | 3.12557 | 17817 ft | 368 kts | 80° |
| 2026-05-05 04:16 | 48.79817 | 3.16383 | 18461 ft | 371 kts | 81° |
| 2026-05-05 04:16 | 48.80295 | 3.20238 | 19050 ft | 374 kts | 81° |
| 2026-05-05 04:17 | 48.80757 | 3.24080 | 19625 ft | 377 kts | 81° |
| 2026-05-05 04:17 | 48.81216 | 3.28005 | 20202 ft | 380 kts | 81° |
| 2026-05-05 04:17 | 48.81674 | 3.31971 | 20763 ft | 383 kts | 81° |
| 2026-05-05 04:17 | 48.82094 | 3.35976 | 21302 ft | 386 kts | 86° |
| 2026-05-05 04:18 | 48.82117 | 3.40047 | 21836 ft | 387 kts | 96° |
| 2026-05-05 04:18 | 48.81854 | 3.44129 | 22372 ft | 390 kts | 97° |
| 2026-05-05 04:18 | 48.81588 | 3.48248 | 22910 ft | 394 kts | 96° |
| 2026-05-05 04:18 | 48.81325 | 3.52398 | 23413 ft | 397 kts | 97° |
| 2026-05-05 04:19 | 48.81064 | 3.56530 | 23833 ft | 401 kts | 97° |
| 2026-05-05 04:19 | 48.80792 | 3.60750 | 24255 ft | 404 kts | 97° |
| 2026-05-05 04:19 | 48.80516 | 3.65001 | 24675 ft | 406 kts | 98° |
| 2026-05-05 04:19 | 48.80236 | 3.69284 | 25093 ft | 409 kts | 98° |
| 2026-05-05 04:20 | 48.79955 | 3.73596 | 25503 ft | 412 kts | 98° |
| 2026-05-05 04:20 | 48.79673 | 3.77932 | 25908 ft | 415 kts | 98° |
| 2026-05-05 04:20 | 48.79385 | 3.82299 | 26307 ft | 417 kts | 99° |
| 2026-05-05 04:20 | 48.79091 | 3.86691 | 26703 ft | 420 kts | 99° |
| 2026-05-05 04:21 | 48.78797 | 3.91055 | 27090 ft | 423 kts | 99° |
| 2026-05-05 04:21 | 48.78495 | 3.95501 | 27480 ft | 425 kts | 99° |
| 2026-05-05 04:21 | 48.78190 | 3.99978 | 27868 ft | 428 kts | 100° |
| 2026-05-05 04:21 | 48.77878 | 4.04476 | 28251 ft | 431 kts | 100° |
| 2026-05-05 04:22 | 48.77548 | 4.09002 | 28626 ft | 432 kts | 103° |
| 2026-05-05 04:22 | 48.76876 | 4.13418 | 28995 ft | 429 kts | 113° |
| 2026-05-05 04:22 | 48.75745 | 4.17567 | 29367 ft | 425 kts | 122° |
| 2026-05-05 04:22 | 48.74219 | 4.21302 | 29726 ft | 422 kts | 130° |
| 2026-05-05 04:23 | 48.72508 | 4.24929 | 30071 ft | 424 kts | 130° |
| 2026-05-05 04:23 | 48.70795 | 4.28567 | 30372 ft | 426 kts | 130° |
| 2026-05-05 04:23 | 48.69075 | 4.32228 | 30664 ft | 428 kts | 130° |
| 2026-05-05 04:23 | 48.67344 | 4.35910 | 30917 ft | 430 kts | 130° |
| 2026-05-05 04:24 | 48.65600 | 4.39611 | 31156 ft | 433 kts | 131° |
| 2026-05-05 04:24 | 48.63845 | 4.43332 | 31427 ft | 436 kts | 131° |
| 2026-05-05 04:24 | 48.62085 | 4.47059 | 31804 ft | 435 kts | 131° |
| 2026-05-05 04:25 | 48.58608 | 4.54422 | 32648 ft | 432 kts | 131° |
| 2026-05-05 04:25 | 48.56864 | 4.58105 | 33066 ft | 430 kts | 131° |
| 2026-05-05 04:25 | 48.55122 | 4.61776 | 33491 ft | 429 kts | 131° |
| 2026-05-05 04:25 | 48.53388 | 4.65421 | 33935 ft | 427 kts | 132° |
| 2026-05-05 04:26 | 48.51659 | 4.69049 | 34286 ft | 426 kts | 131° |
| 2026-05-05 04:26 | 48.49929 | 4.72674 | 34583 ft | 426 kts | 131° |
| 2026-05-05 04:26 | 48.48197 | 4.76302 | 34839 ft | 427 kts | 132° |
| 2026-05-05 04:26 | 48.46461 | 4.79932 | 35105 ft | 427 kts | 132° |
| 2026-05-05 04:27 | 48.44720 | 4.83568 | 35364 ft | 428 kts | 131° |
| 2026-05-05 04:27 | 48.43000 | 4.87149 | 35608 ft | 429 kts | 131° |
| 2026-05-05 04:27 | 48.41249 | 4.90790 | 35850 ft | 430 kts | 131° |
| 2026-05-05 04:27 | 48.39495 | 4.94433 | 36071 ft | 430 kts | 131° |
| 2026-05-05 04:28 | 48.37737 | 4.98079 | 36312 ft | 431 kts | 131° |
| 2026-05-05 04:28 | 48.35972 | 5.01737 | 36531 ft | 432 kts | 131° |
| 2026-05-05 04:28 | 48.34208 | 5.05393 | 36757 ft | 433 kts | 130° |
| 2026-05-05 04:28 | 48.32438 | 5.09053 | 36889 ft | 433 kts | 130° |
| 2026-05-05 04:29 | 48.30725 | 5.12776 | 36915 ft | 435 kts | 125° |
| 2026-05-05 04:29 | 48.28507 | 5.21220 | 36914 ft | 445 kts | 107° |
| 2026-05-05 04:30 | 48.27189 | 5.30302 | 36918 ft | 445 kts | 107° |
| 2026-05-05 04:30 | 48.25849 | 5.39372 | 36916 ft | 445 kts | 107° |
| 2026-05-05 04:31 | 48.24481 | 5.48430 | 36919 ft | 445 kts | 107° |
| 2026-05-05 04:31 | 48.23121 | 5.57423 | 36900 ft | 445 kts | 107° |
| 2026-05-05 04:32 | 48.21752 | 5.66477 | 36915 ft | 445 kts | 107° |
| 2026-05-05 04:32 | 48.20372 | 5.75528 | 36905 ft | 445 kts | 107° |
| 2026-05-05 04:33 | 48.18990 | 5.84573 | 36907 ft | 445 kts | 107° |
| 2026-05-05 04:33 | 48.17599 | 5.93548 | 36913 ft | 445 kts | 107° |
| 2026-05-05 04:34 | 48.16194 | 6.02586 | 36909 ft | 445 kts | 107° |
| 2026-05-05 04:34 | 48.14788 | 6.11623 | 36903 ft | 446 kts | 107° |
| 2026-05-05 04:35 | 48.13377 | 6.20671 | 36910 ft | 446 kts | 107° |
| 2026-05-05 04:35 | 48.11960 | 6.29650 | 36912 ft | 446 kts | 108° |
| 2026-05-05 04:36 | 48.10526 | 6.38685 | 36911 ft | 447 kts | 108° |
| 2026-05-05 04:36 | 48.09087 | 6.47723 | 36899 ft | 446 kts | 108° |
| 2026-05-05 04:37 | 48.07644 | 6.56754 | 36909 ft | 446 kts | 108° |
| 2026-05-05 04:37 | 48.06185 | 6.65769 | 36911 ft | 446 kts | 108° |
| 2026-05-05 04:38 | 48.04735 | 6.74726 | 36916 ft | 446 kts | 108° |
| 2026-05-05 04:38 | 48.03282 | 6.83740 | 36895 ft | 447 kts | 108° |
| 2026-05-05 04:39 | 48.01814 | 6.92750 | 36916 ft | 446 kts | 108° |
| 2026-05-05 04:39 | 48.00331 | 7.01735 | 36917 ft | 446 kts | 108° |
| 2026-05-05 04:40 | 47.98841 | 7.10708 | 36913 ft | 445 kts | 108° |
| 2026-05-05 04:40 | 47.97358 | 7.19616 | 36913 ft | 445 kts | 108° |
| 2026-05-05 04:41 | 47.95863 | 7.28572 | 36904 ft | 445 kts | 108° |
| 2026-05-05 04:41 | 47.94362 | 7.37519 | 36916 ft | 444 kts | 108° |
| 2026-05-05 04:42 | 47.92863 | 7.46397 | 36915 ft | 444 kts | 108° |
| 2026-05-05 04:42 | 47.91342 | 7.55327 | 36917 ft | 444 kts | 108° |
| 2026-05-05 04:43 | 47.89404 | 7.64001 | 36902 ft | 440 kts | 115° |
| 2026-05-05 04:43 | 47.87243 | 7.72537 | 36905 ft | 440 kts | 115° |
| 2026-05-05 04:44 | 47.85083 | 7.81078 | 36912 ft | 441 kts | 115° |
| 2026-05-05 04:44 | 47.82932 | 7.89556 | 36913 ft | 441 kts | 115° |
| 2026-05-05 04:45 | 47.80754 | 7.98078 | 36920 ft | 441 kts | 115° |
| 2026-05-05 04:45 | 47.78564 | 8.06597 | 36917 ft | 441 kts | 115° |
| 2026-05-05 04:46 | 47.76372 | 8.15107 | 36932 ft | 441 kts | 115° |
| 2026-05-05 04:46 | 47.74168 | 8.23622 | 36939 ft | 441 kts | 115° |
| 2026-05-05 04:47 | 47.71976 | 8.32068 | 36937 ft | 441 kts | 115° |
| 2026-05-05 04:47 | 47.69754 | 8.40558 | 36925 ft | 440 kts | 118° |
| 2026-05-05 04:48 | 47.66583 | 8.48161 | 36906 ft | 431 kts | 133° |
| 2026-05-05 04:48 | 47.62857 | 8.55124 | 36911 ft | 431 kts | 133° |
| 2026-05-05 04:49 | 47.59158 | 8.62048 | 36918 ft | 432 kts | 133° |
| 2026-05-05 04:49 | 47.55428 | 8.69017 | 36921 ft | 432 kts | 133° |
| 2026-05-05 04:50 | 47.51689 | 8.75978 | 36924 ft | 432 kts | 133° |
| 2026-05-05 04:50 | 47.47943 | 8.82923 | 36911 ft | 432 kts | 133° |
| 2026-05-05 04:51 | 47.44192 | 8.89855 | 36909 ft | 432 kts | 133° |
| 2026-05-05 04:51 | 47.40465 | 8.96746 | 36911 ft | 432 kts | 133° |
| 2026-05-05 04:52 | 47.36711 | 9.03684 | 36913 ft | 433 kts | 133° |
| 2026-05-05 04:52 | 47.32943 | 9.10604 | 36914 ft | 433 kts | 133° |
| 2026-05-05 04:53 | 47.29164 | 9.17515 | 36891 ft | 433 kts | 133° |
| 2026-05-05 04:53 | 47.25412 | 9.24388 | 36896 ft | 434 kts | 133° |
| 2026-05-05 04:54 | 47.21627 | 9.31297 | 36895 ft | 434 kts | 133° |
| 2026-05-05 04:54 | 47.17831 | 9.38200 | 36896 ft | 434 kts | 133° |
| 2026-05-05 04:55 | 47.14035 | 9.45100 | 36896 ft | 434 kts | 133° |
| 2026-05-05 04:55 | 47.10228 | 9.51988 | 36881 ft | 435 kts | 133° |
| 2026-05-05 04:56 | 47.06432 | 9.58825 | 36897 ft | 436 kts | 133° |
| 2026-05-05 04:56 | 47.02604 | 9.65717 | 36901 ft | 436 kts | 133° |
| 2026-05-05 04:57 | 46.98774 | 9.72599 | 36907 ft | 436 kts | 133° |
| 2026-05-05 04:57 | 46.94942 | 9.79478 | 36913 ft | 436 kts | 133° |
| 2026-05-05 04:58 | 46.91126 | 9.86306 | 36917 ft | 436 kts | 133° |
| 2026-05-05 04:58 | 46.87272 | 9.93168 | 36931 ft | 437 kts | 133° |
| 2026-05-05 04:59 | 46.83411 | 10.00032 | 36960 ft | 437 kts | 133° |
| 2026-05-05 04:59 | 46.79550 | 10.06899 | 36967 ft | 438 kts | 133° |
| 2026-05-05 05:00 | 46.75698 | 10.13703 | 36990 ft | 438 kts | 134° |
| 2026-05-05 05:00 | 46.71814 | 10.20544 | 36982 ft | 438 kts | 134° |
| 2026-05-05 05:01 | 46.67932 | 10.27393 | 36995 ft | 439 kts | 134° |
| 2026-05-05 05:01 | 46.64032 | 10.34238 | 37002 ft | 439 kts | 134° |
| 2026-05-05 05:02 | 46.60154 | 10.41031 | 37023 ft | 439 kts | 134° |
| 2026-05-05 05:02 | 46.56245 | 10.47864 | 37033 ft | 439 kts | 134° |
| 2026-05-05 05:03 | 46.52509 | 10.54909 | 37022 ft | 441 kts | 129° |
| 2026-05-05 05:03 | 46.48959 | 10.62185 | 37021 ft | 442 kts | 129° |
| 2026-05-05 05:04 | 46.45389 | 10.69458 | 37030 ft | 442 kts | 129° |
| 2026-05-05 05:04 | 46.41776 | 10.76611 | 37039 ft | 443 kts | 130° |
| 2026-05-05 05:05 | 46.38112 | 10.83784 | 37067 ft | 443 kts | 130° |
| 2026-05-05 05:05 | 46.34451 | 10.90960 | 37086 ft | 443 kts | 130° |
| 2026-05-05 05:06 | 46.30786 | 10.98129 | 37115 ft | 443 kts | 130° |
| 2026-05-05 05:06 | 46.27149 | 11.05246 | 37120 ft | 443 kts | 130° |
| 2026-05-05 05:07 | 46.23481 | 11.12403 | 37121 ft | 443 kts | 130° |
| 2026-05-05 05:07 | 46.19807 | 11.19541 | 37111 ft | 443 kts | 130° |
| 2026-05-05 05:08 | 46.16128 | 11.26664 | 37030 ft | 443 kts | 130° |
| 2026-05-05 05:08 | 46.12447 | 11.33778 | 37029 ft | 443 kts | 130° |
| 2026-05-05 05:09 | 46.08792 | 11.40851 | 37025 ft | 443 kts | 130° |
| 2026-05-05 05:09 | 46.05103 | 11.47949 | 37034 ft | 443 kts | 130° |
| 2026-05-05 05:10 | 46.01407 | 11.55029 | 37032 ft | 442 kts | 130° |
| 2026-05-05 05:10 | 45.97716 | 11.62100 | 37036 ft | 443 kts | 130° |
| 2026-05-05 05:11 | 45.94039 | 11.69128 | 37033 ft | 443 kts | 130° |
| 2026-05-05 05:11 | 45.90336 | 11.76197 | 37038 ft | 443 kts | 130° |
| 2026-05-05 05:12 | 45.86627 | 11.83256 | 37037 ft | 443 kts | 130° |
| 2026-05-05 05:12 | 45.82910 | 11.90301 | 37022 ft | 443 kts | 130° |
| 2026-05-05 05:13 | 45.79202 | 11.97290 | 37030 ft | 444 kts | 130° |
| 2026-05-05 05:13 | 45.75474 | 12.04333 | 37035 ft | 444 kts | 130° |
| 2026-05-05 05:14 | 45.71742 | 12.11374 | 37030 ft | 444 kts | 130° |
| 2026-05-05 05:14 | 45.68003 | 12.18400 | 37013 ft | 444 kts | 130° |
| 2026-05-05 05:15 | 45.64249 | 12.25416 | 36997 ft | 444 kts | 130° |
| 2026-05-05 05:15 | 45.60518 | 12.32365 | 36993 ft | 444 kts | 130° |
| 2026-05-05 05:16 | 45.56767 | 12.39372 | 36993 ft | 444 kts | 130° |
| 2026-05-05 05:16 | 45.53012 | 12.46361 | 36996 ft | 444 kts | 131° |
| 2026-05-05 05:17 | 45.49241 | 12.53342 | 37002 ft | 444 kts | 131° |
| 2026-05-05 05:17 | 45.45488 | 12.60269 | 36988 ft | 445 kts | 131° |
| 2026-05-05 05:18 | 45.41708 | 12.67252 | 36990 ft | 445 kts | 131° |
| 2026-05-05 05:18 | 45.37926 | 12.74216 | 36995 ft | 445 kts | 131° |
| 2026-05-05 05:19 | 45.34137 | 12.81180 | 37005 ft | 445 kts | 131° |
| 2026-05-05 05:19 | 45.30574 | 12.88328 | 36998 ft | 449 kts | 121° |
| 2026-05-05 05:20 | 45.27585 | 12.96126 | 37004 ft | 450 kts | 121° |
| 2026-05-05 05:20 | 45.24172 | 13.03506 | 37005 ft | 447 kts | 130° |
| 2026-05-05 05:21 | 45.20420 | 13.10533 | 37008 ft | 447 kts | 130° |
| 2026-05-05 05:21 | 45.16667 | 13.17552 | 37012 ft | 446 kts | 130° |
| 2026-05-05 05:22 | 45.12932 | 13.24506 | 37004 ft | 447 kts | 130° |
| 2026-05-05 05:22 | 45.09160 | 13.31510 | 37024 ft | 448 kts | 130° |
| 2026-05-05 05:23 | 45.05377 | 13.38509 | 37026 ft | 448 kts | 130° |
| 2026-05-05 05:23 | 45.01591 | 13.45503 | 37024 ft | 448 kts | 130° |
| 2026-05-05 05:24 | 44.97803 | 13.52495 | 37027 ft | 448 kts | 130° |
| 2026-05-05 05:24 | 44.94033 | 13.59437 | 37029 ft | 449 kts | 130° |
| 2026-05-05 05:25 | 44.90226 | 13.66431 | 37044 ft | 450 kts | 130° |
| 2026-05-05 05:25 | 44.86406 | 13.73418 | 37043 ft | 450 kts | 131° |
| 2026-05-05 05:26 | 44.82581 | 13.80397 | 37039 ft | 450 kts | 131° |
| 2026-05-05 05:26 | 44.78780 | 13.87334 | 37049 ft | 450 kts | 130° |
| 2026-05-05 05:27 | 44.74950 | 13.94311 | 37048 ft | 451 kts | 131° |
| 2026-05-05 05:27 | 44.69185 | 14.04751 | 37040 ft | 451 kts | 131° |
| 2026-05-05 05:28 | 44.65335 | 14.11708 | 37035 ft | 451 kts | 131° |
| 2026-05-05 05:28 | 44.61500 | 14.18613 | 37043 ft | 452 kts | 131° |
| 2026-05-05 05:29 | 44.57632 | 14.25562 | 37048 ft | 452 kts | 131° |
| 2026-05-05 05:29 | 44.53762 | 14.32512 | 37051 ft | 452 kts | 131° |
| 2026-05-05 05:30 | 44.49882 | 14.39443 | 37054 ft | 452 kts | 131° |
| 2026-05-05 05:30 | 44.46026 | 14.46330 | 37037 ft | 453 kts | 131° |
| 2026-05-05 05:31 | 44.42133 | 14.53262 | 37040 ft | 453 kts | 131° |
| 2026-05-05 05:31 | 44.38233 | 14.60191 | 37044 ft | 454 kts | 131° |
| 2026-05-05 05:32 | 44.34324 | 14.67128 | 37047 ft | 454 kts | 131° |
| 2026-05-05 05:32 | 44.30408 | 14.74051 | 37050 ft | 454 kts | 131° |
| 2026-05-05 05:33 | 44.26512 | 14.80918 | 37057 ft | 454 kts | 131° |
| 2026-05-05 05:33 | 44.22586 | 14.87825 | 37052 ft | 455 kts | 131° |
| 2026-05-05 05:34 | 44.18652 | 14.94729 | 37050 ft | 455 kts | 131° |
| 2026-05-05 05:34 | 44.14713 | 15.01631 | 37052 ft | 455 kts | 131° |
| 2026-05-05 05:35 | 44.10792 | 15.08485 | 37054 ft | 456 kts | 132° |
| 2026-05-05 05:35 | 44.06822 | 15.15393 | 37064 ft | 457 kts | 132° |
| 2026-05-05 05:36 | 44.02853 | 15.22307 | 37067 ft | 458 kts | 132° |
| 2026-05-05 05:36 | 43.98873 | 15.29217 | 37071 ft | 458 kts | 132° |
| 2026-05-05 05:37 | 43.94907 | 15.36070 | 37053 ft | 458 kts | 132° |
| 2026-05-05 05:37 | 43.90909 | 15.42964 | 37053 ft | 459 kts | 132° |
| 2026-05-05 05:38 | 43.86908 | 15.49864 | 37054 ft | 459 kts | 132° |
| 2026-05-05 05:38 | 43.82900 | 15.56762 | 37057 ft | 460 kts | 132° |
| 2026-05-05 05:39 | 43.78907 | 15.63615 | 37057 ft | 460 kts | 132° |
| 2026-05-05 05:39 | 43.74877 | 15.70506 | 37054 ft | 461 kts | 132° |
| 2026-05-05 05:40 | 43.70835 | 15.77393 | 37064 ft | 462 kts | 132° |
| 2026-05-05 05:40 | 43.66782 | 15.84283 | 37069 ft | 462 kts | 132° |
| 2026-05-05 05:41 | 43.62752 | 15.91115 | 37068 ft | 462 kts | 132° |
| 2026-05-05 05:41 | 43.58694 | 15.97991 | 37082 ft | 462 kts | 132° |
| 2026-05-05 05:42 | 43.54634 | 16.04857 | 37071 ft | 462 kts | 132° |
| 2026-05-05 05:42 | 43.50565 | 16.11716 | 37073 ft | 462 kts | 132° |
| 2026-05-05 05:43 | 43.46515 | 16.18529 | 37078 ft | 463 kts | 132° |
| 2026-05-05 05:43 | 43.42434 | 16.25384 | 37069 ft | 463 kts | 132° |
| 2026-05-05 05:44 | 43.38342 | 16.32232 | 37068 ft | 464 kts | 133° |
| 2026-05-05 05:44 | 43.34237 | 16.39078 | 37065 ft | 464 kts | 132° |
| 2026-05-05 05:45 | 43.30124 | 16.45923 | 37068 ft | 465 kts | 132° |
| 2026-05-05 05:45 | 43.26029 | 16.52734 | 37076 ft | 466 kts | 132° |
| 2026-05-05 05:46 | 43.21904 | 16.59585 | 37078 ft | 466 kts | 132° |
| 2026-05-05 05:46 | 43.17773 | 16.66431 | 37084 ft | 466 kts | 132° |
| 2026-05-05 05:47 | 43.13634 | 16.73272 | 37080 ft | 467 kts | 132° |
| 2026-05-05 05:47 | 43.09482 | 16.80104 | 37088 ft | 467 kts | 132° |
| 2026-05-05 05:48 | 43.05348 | 16.86886 | 37088 ft | 467 kts | 132° |
| 2026-05-05 05:48 | 43.01183 | 16.93706 | 37096 ft | 467 kts | 132° |
| 2026-05-05 05:49 | 42.97016 | 17.00526 | 37102 ft | 468 kts | 132° |
| 2026-05-05 05:49 | 42.92852 | 17.07344 | 37096 ft | 468 kts | 132° |
| 2026-05-05 05:50 | 42.88668 | 17.14144 | 37091 ft | 468 kts | 132° |
| 2026-05-05 05:50 | 42.84501 | 17.20892 | 37095 ft | 469 kts | 132° |
| 2026-05-05 05:51 | 42.80306 | 17.27693 | 37093 ft | 469 kts | 132° |
| 2026-05-05 05:51 | 42.76108 | 17.34492 | 37099 ft | 469 kts | 132° |
| 2026-05-05 05:52 | 42.71900 | 17.41276 | 37106 ft | 469 kts | 132° |
| 2026-05-05 05:52 | 42.67711 | 17.48005 | 37105 ft | 469 kts | 132° |
| 2026-05-05 05:53 | 42.63488 | 17.54779 | 37088 ft | 470 kts | 132° |
| 2026-05-05 05:53 | 42.59261 | 17.61558 | 37090 ft | 471 kts | 132° |
| 2026-05-05 05:54 | 42.55024 | 17.68335 | 37099 ft | 471 kts | 132° |
| 2026-05-05 05:54 | 42.50806 | 17.75053 | 37104 ft | 471 kts | 132° |
| 2026-05-05 05:55 | 42.46552 | 17.81819 | 37103 ft | 472 kts | 132° |
| 2026-05-05 05:55 | 42.42296 | 17.88580 | 37105 ft | 472 kts | 131° |
| 2026-05-05 05:56 | 42.38032 | 17.95339 | 37100 ft | 472 kts | 132° |
| 2026-05-05 05:56 | 42.33752 | 18.02087 | 37103 ft | 473 kts | 132° |
| 2026-05-05 05:57 | 42.29499 | 18.08791 | 37107 ft | 473 kts | 132° |
| 2026-05-05 05:57 | 42.25218 | 18.15540 | 37106 ft | 473 kts | 132° |
| 2026-05-05 05:58 | 42.20928 | 18.22282 | 37110 ft | 473 kts | 132° |
| 2026-05-05 05:58 | 42.16630 | 18.29009 | 37108 ft | 474 kts | 132° |
| 2026-05-05 05:59 | 42.12324 | 18.35730 | 37098 ft | 474 kts | 132° |
| 2026-05-05 05:59 | 42.08038 | 18.42400 | 37111 ft | 474 kts | 132° |
| 2026-05-05 06:00 | 42.03720 | 18.49114 | 37109 ft | 475 kts | 132° |
| 2026-05-05 06:00 | 41.99046 | 18.55340 | 37106 ft | 473 kts | 142° |
| 2026-05-05 06:01 | 41.93951 | 18.60951 | 37113 ft | 474 kts | 142° |
| 2026-05-05 06:01 | 41.88890 | 18.66529 | 37116 ft | 474 kts | 142° |
| 2026-05-05 06:02 | 41.83789 | 18.72142 | 37117 ft | 474 kts | 142° |
| 2026-05-05 06:02 | 41.78686 | 18.77751 | 37119 ft | 474 kts | 142° |
| 2026-05-05 06:03 | 41.73576 | 18.83357 | 37113 ft | 475 kts | 142° |
| 2026-05-05 06:03 | 41.68489 | 18.88922 | 37114 ft | 476 kts | 142° |
| 2026-05-05 06:04 | 41.63360 | 18.94512 | 37096 ft | 476 kts | 142° |
| 2026-05-05 06:04 | 41.58222 | 19.00103 | 37106 ft | 476 kts | 142° |
| 2026-05-05 06:05 | 41.53082 | 19.05697 | 37118 ft | 477 kts | 142° |
| 2026-05-05 06:05 | 41.47932 | 19.11282 | 37126 ft | 477 kts | 142° |
| 2026-05-05 06:06 | 41.42809 | 19.16822 | 37127 ft | 478 kts | 142° |
| 2026-05-05 06:06 | 41.37643 | 19.22406 | 37117 ft | 478 kts | 142° |
| 2026-05-05 06:07 | 41.32473 | 19.27985 | 37128 ft | 479 kts | 142° |
| 2026-05-05 06:07 | 41.27290 | 19.33555 | 37132 ft | 479 kts | 142° |
| 2026-05-05 06:08 | 41.22137 | 19.39076 | 37137 ft | 479 kts | 142° |
| 2026-05-05 06:08 | 41.16945 | 19.44633 | 37140 ft | 479 kts | 142° |
| 2026-05-05 06:09 | 41.11754 | 19.50189 | 37136 ft | 480 kts | 142° |
| 2026-05-05 06:09 | 41.06554 | 19.55742 | 37131 ft | 480 kts | 142° |
| 2026-05-05 06:10 | 41.01377 | 19.61254 | 37135 ft | 481 kts | 142° |
| 2026-05-05 06:10 | 40.96161 | 19.66792 | 37137 ft | 481 kts | 142° |
| 2026-05-05 06:11 | 40.90938 | 19.72323 | 37142 ft | 481 kts | 142° |
| 2026-05-05 06:11 | 40.85711 | 19.77847 | 37130 ft | 481 kts | 142° |
| 2026-05-05 06:12 | 40.80514 | 19.83331 | 37145 ft | 482 kts | 142° |
| 2026-05-05 06:12 | 40.75272 | 19.88850 | 37132 ft | 482 kts | 142° |
| 2026-05-05 06:13 | 40.70022 | 19.94369 | 37139 ft | 483 kts | 142° |
| 2026-05-05 06:13 | 40.64762 | 19.99884 | 37138 ft | 483 kts | 142° |
| 2026-05-05 06:14 | 40.59498 | 20.05397 | 37136 ft | 483 kts | 142° |
| 2026-05-05 06:14 | 40.54269 | 20.10866 | 37144 ft | 484 kts | 142° |
| 2026-05-05 06:15 | 40.48995 | 20.16360 | 37158 ft | 484 kts | 142° |
| 2026-05-05 06:15 | 40.43716 | 20.21849 | 37153 ft | 484 kts | 142° |
| 2026-05-05 06:16 | 40.38431 | 20.27336 | 37149 ft | 484 kts | 142° |
| 2026-05-05 06:16 | 40.33179 | 20.32778 | 37141 ft | 484 kts | 142° |
| 2026-05-05 06:17 | 40.27888 | 20.38257 | 37152 ft | 485 kts | 142° |
| 2026-05-05 06:17 | 40.23484 | 20.42799 | 37153 ft | 485 kts | 142° |
| 2026-05-05 06:18 | 40.18183 | 20.48253 | 37163 ft | 485 kts | 142° |
| 2026-05-05 06:18 | 40.12014 | 20.54585 | 37153 ft | 485 kts | 142° |
| 2026-05-05 06:19 | 40.07560 | 20.59149 | 37144 ft | 486 kts | 142° |
| 2026-05-05 06:19 | 40.02390 | 20.64737 | 37146 ft | 486 kts | 139° |
| 2026-05-05 06:20 | 39.97342 | 20.70613 | 37156 ft | 486 kts | 138° |
| 2026-05-05 06:20 | 39.91467 | 20.77432 | 37166 ft | 486 kts | 139° |
| 2026-05-05 06:21 | 39.86362 | 20.83207 | 37180 ft | 487 kts | 139° |
| 2026-05-05 06:21 | 39.82098 | 20.87990 | 37177 ft | 487 kts | 139° |
| 2026-05-05 06:22 | 39.76968 | 20.93737 | 37178 ft | 487 kts | 139° |
| 2026-05-05 06:22 | 39.71842 | 20.99499 | 37173 ft | 487 kts | 139° |
| 2026-05-05 06:23 | 39.66718 | 21.05264 | 37169 ft | 488 kts | 139° |
| 2026-05-05 06:23 | 39.61625 | 21.10985 | 37162 ft | 487 kts | 139° |
| 2026-05-05 06:24 | 39.56492 | 21.16726 | 37153 ft | 487 kts | 139° |
| 2026-05-05 06:24 | 39.51348 | 21.22457 | 37143 ft | 488 kts | 139° |
| 2026-05-05 06:25 | 39.46196 | 21.28182 | 37140 ft | 488 kts | 139° |
| 2026-05-05 06:25 | 39.41043 | 21.33903 | 37141 ft | 488 kts | 139° |
| 2026-05-05 06:26 | 39.35928 | 21.39595 | 37139 ft | 488 kts | 139° |
| 2026-05-05 06:26 | 39.30769 | 21.45305 | 37124 ft | 488 kts | 139° |
| 2026-05-05 06:27 | 39.23009 | 21.53850 | 37127 ft | 489 kts | 139° |
| 2026-05-05 06:28 | 39.17875 | 21.59508 | 37124 ft | 489 kts | 139° |
| 2026-05-05 06:28 | 39.12700 | 21.65192 | 37129 ft | 489 kts | 139° |
| 2026-05-05 06:29 | 39.07517 | 21.70872 | 37137 ft | 489 kts | 139° |
| 2026-05-05 06:29 | 39.02335 | 21.76551 | 37128 ft | 489 kts | 139° |
| 2026-05-05 06:30 | 38.97150 | 21.82216 | 37148 ft | 489 kts | 139° |
| 2026-05-05 06:30 | 38.91994 | 21.87837 | 37146 ft | 489 kts | 139° |
| 2026-05-05 06:31 | 38.86801 | 21.93479 | 37139 ft | 489 kts | 139° |
| 2026-05-05 06:31 | 38.81608 | 21.99110 | 37138 ft | 489 kts | 139° |
| 2026-05-05 06:32 | 38.76413 | 22.04737 | 37125 ft | 489 kts | 139° |
| 2026-05-05 06:32 | 38.71255 | 22.10321 | 37119 ft | 489 kts | 139° |
| 2026-05-05 06:33 | 38.66056 | 22.15937 | 37139 ft | 489 kts | 139° |
| 2026-05-05 06:33 | 38.60855 | 22.21537 | 37134 ft | 489 kts | 139° |
| 2026-05-05 06:34 | 38.55648 | 22.27121 | 37125 ft | 489 kts | 140° |
| 2026-05-05 06:34 | 38.50481 | 22.32669 | 37125 ft | 489 kts | 139° |
| 2026-05-05 06:35 | 38.45276 | 22.38241 | 37121 ft | 489 kts | 140° |
| 2026-05-05 06:35 | 38.40067 | 22.43812 | 37125 ft | 489 kts | 140° |
| 2026-05-05 06:36 | 38.34852 | 22.49371 | 37148 ft | 488 kts | 140° |
| 2026-05-05 06:36 | 38.29647 | 22.54911 | 37147 ft | 487 kts | 140° |
| 2026-05-05 06:37 | 38.24480 | 22.60405 | 37141 ft | 487 kts | 140° |
| 2026-05-05 06:37 | 38.19278 | 22.65919 | 37118 ft | 487 kts | 140° |
| 2026-05-05 06:38 | 38.14072 | 22.71434 | 37120 ft | 487 kts | 140° |
| 2026-05-05 06:38 | 38.08860 | 22.76947 | 37118 ft | 488 kts | 140° |
| 2026-05-05 06:39 | 38.03675 | 22.82411 | 37140 ft | 488 kts | 140° |
| 2026-05-05 06:39 | 37.98459 | 22.87900 | 37139 ft | 487 kts | 140° |
| 2026-05-05 06:40 | 37.93161 | 22.93242 | 37112 ft | 487 kts | 148° |
| 2026-05-05 06:40 | 37.87190 | 22.97235 | 37113 ft | 486 kts | 155° |
| 2026-05-05 06:41 | 37.81166 | 23.00990 | 37112 ft | 486 kts | 155° |
| 2026-05-05 06:41 | 37.75100 | 23.04785 | 37111 ft | 487 kts | 155° |
| 2026-05-05 06:42 | 37.69021 | 23.08562 | 37099 ft | 487 kts | 155° |
| 2026-05-05 06:42 | 37.62939 | 23.12334 | 37119 ft | 487 kts | 155° |
| 2026-05-05 06:43 | 37.56892 | 23.16086 | 37119 ft | 488 kts | 155° |
| 2026-05-05 06:43 | 37.50798 | 23.19854 | 37117 ft | 488 kts | 156° |
| 2026-05-05 06:44 | 37.44406 | 23.22440 | 37096 ft | 480 kts | 174° |
| 2026-05-05 06:44 | 37.37808 | 23.23811 | 37103 ft | 481 kts | 174° |
| 2026-05-05 06:45 | 37.31250 | 23.25208 | 37104 ft | 481 kts | 174° |
| 2026-05-05 06:45 | 37.24645 | 23.26618 | 37107 ft | 482 kts | 174° |
| 2026-05-05 06:46 | 37.18031 | 23.28014 | 37097 ft | 482 kts | 174° |
| 2026-05-05 06:46 | 37.11417 | 23.29403 | 37108 ft | 482 kts | 174° |
| 2026-05-05 06:47 | 37.04792 | 23.30786 | 37107 ft | 483 kts | 174° |
| 2026-05-05 06:47 | 36.98211 | 23.32158 | 37116 ft | 483 kts | 174° |
| 2026-05-05 06:47 | 36.94892 | 23.32854 | 36990 ft | 484 kts | 174° |
| 2026-05-05 06:48 | 36.91570 | 23.33553 | 36727 ft | 484 kts | 174° |
| 2026-05-05 06:48 | 36.88255 | 23.34302 | 36469 ft | 486 kts | 170° |
| 2026-05-05 06:48 | 36.85021 | 23.35594 | 36214 ft | 490 kts | 159° |
| 2026-05-05 06:48 | 36.81988 | 23.37552 | 35962 ft | 493 kts | 148° |
| 2026-05-05 06:49 | 36.79248 | 23.40105 | 35609 ft | 491 kts | 138° |
| 2026-05-05 06:49 | 36.76920 | 23.43117 | 35040 ft | 488 kts | 127° |
| 2026-05-05 06:49 | 36.74901 | 23.46498 | 34456 ft | 485 kts | 124° |
| 2026-05-05 06:49 | 36.72910 | 23.49879 | 33846 ft | 483 kts | 124° |
| 2026-05-05 06:50 | 36.70920 | 23.53236 | 33256 ft | 479 kts | 124° |
| 2026-05-05 06:50 | 36.68940 | 23.56555 | 32709 ft | 476 kts | 124° |
| 2026-05-05 06:50 | 36.66967 | 23.59850 | 32149 ft | 473 kts | 124° |
| 2026-05-05 06:50 | 36.65006 | 23.63119 | 31599 ft | 470 kts | 124° |
| 2026-05-05 06:51 | 36.63059 | 23.66367 | 31056 ft | 467 kts | 124° |
| 2026-05-05 06:51 | 36.61125 | 23.69600 | 30517 ft | 464 kts | 124° |
| 2026-05-05 06:51 | 36.59231 | 23.72772 | 29958 ft | 462 kts | 124° |
| 2026-05-05 06:51 | 36.57324 | 23.75966 | 29437 ft | 457 kts | 124° |
| 2026-05-05 06:52 | 36.55436 | 23.79121 | 28903 ft | 452 kts | 124° |
| 2026-05-05 06:52 | 36.53568 | 23.82233 | 28413 ft | 447 kts | 124° |
| 2026-05-05 06:52 | 36.51715 | 23.85310 | 27922 ft | 442 kts | 124° |
| 2026-05-05 06:52 | 36.49883 | 23.88349 | 27442 ft | 437 kts | 124° |
| 2026-05-05 06:53 | 36.48074 | 23.91354 | 26965 ft | 432 kts | 124° |
| 2026-05-05 06:53 | 36.46284 | 23.94326 | 26505 ft | 427 kts | 124° |
| 2026-05-05 06:53 | 36.44516 | 23.97267 | 26040 ft | 423 kts | 124° |
| 2026-05-05 06:53 | 36.42785 | 24.00140 | 25564 ft | 419 kts | 124° |
| 2026-05-05 06:54 | 36.41041 | 24.03029 | 25077 ft | 416 kts | 124° |
| 2026-05-05 06:54 | 36.39314 | 24.05895 | 24573 ft | 414 kts | 124° |
| 2026-05-05 06:54 | 36.37599 | 24.08751 | 24069 ft | 411 kts | 125° |
| 2026-05-05 06:54 | 36.35900 | 24.11586 | 23512 ft | 408 kts | 125° |
| 2026-05-05 06:55 | 36.34212 | 24.14404 | 22974 ft | 405 kts | 125° |
| 2026-05-05 06:55 | 36.32536 | 24.17194 | 22459 ft | 401 kts | 125° |
| 2026-05-05 06:55 | 36.30874 | 24.19960 | 21952 ft | 398 kts | 125° |
| 2026-05-05 06:55 | 36.29228 | 24.22703 | 21448 ft | 395 kts | 125° |
| 2026-05-05 06:56 | 36.27595 | 24.25422 | 20956 ft | 392 kts | 125° |
| 2026-05-05 06:56 | 36.25992 | 24.28084 | 20466 ft | 389 kts | 125° |
| 2026-05-05 06:56 | 36.24371 | 24.30758 | 19980 ft | 387 kts | 127° |
| 2026-05-05 06:56 | 36.22455 | 24.33072 | 19492 ft | 385 kts | 144° |
| 2026-05-05 06:57 | 36.20100 | 24.34611 | 19051 ft | 381 kts | 161° |
| 2026-05-05 06:57 | 36.17523 | 24.35263 | 18577 ft | 378 kts | 178° |
| 2026-05-05 06:57 | 36.14933 | 24.35007 | 18085 ft | 373 kts | 193° |
| 2026-05-05 06:57 | 36.12409 | 24.34304 | 17651 ft | 369 kts | 194° |
| 2026-05-05 06:58 | 36.09911 | 24.33590 | 17134 ft | 367 kts | 194° |
| 2026-05-05 06:58 | 36.07432 | 24.32881 | 16624 ft | 365 kts | 194° |
| 2026-05-05 06:58 | 36.05008 | 24.32191 | 16187 ft | 361 kts | 194° |
| 2026-05-05 06:58 | 36.02562 | 24.31500 | 15713 ft | 360 kts | 194° |
| 2026-05-05 06:59 | 36.00133 | 24.30817 | 15268 ft | 357 kts | 194° |
| 2026-05-05 06:59 | 35.97717 | 24.30139 | 14833 ft | 355 kts | 194° |
| 2026-05-05 06:59 | 35.95326 | 24.29469 | 14482 ft | 349 kts | 194° |
| 2026-05-05 06:59 | 35.92999 | 24.28829 | 14049 ft | 336 kts | 192° |
| 2026-05-05 07:00 | 35.90710 | 24.28688 | 13528 ft | 326 kts | 173° |
| 2026-05-05 07:00 | 35.88542 | 24.29352 | 13011 ft | 317 kts | 163° |
| 2026-05-05 07:00 | 35.86451 | 24.30146 | 12512 ft | 315 kts | 162° |
| 2026-05-05 07:00 | 35.84353 | 24.30945 | 12050 ft | 317 kts | 162° |
| 2026-05-05 07:01 | 35.82271 | 24.31740 | 11610 ft | 318 kts | 162° |
| 2026-05-05 07:01 | 35.80151 | 24.32549 | 11163 ft | 318 kts | 162° |
| 2026-05-05 07:01 | 35.78048 | 24.33351 | 10723 ft | 314 kts | 162° |
| 2026-05-05 07:01 | 35.75976 | 24.34143 | 10290 ft | 310 kts | 162° |
| 2026-05-05 07:02 | 35.73926 | 24.34924 | 9844 ft | 306 kts | 162° |
| 2026-05-05 07:02 | 35.71902 | 24.35695 | 9368 ft | 303 kts | 162° |
| 2026-05-05 07:02 | 35.69904 | 24.36455 | 8894 ft | 299 kts | 161° |
| 2026-05-05 07:02 | 35.67933 | 24.37204 | 8437 ft | 295 kts | 161° |
| 2026-05-05 07:03 | 35.66015 | 24.37935 | 7983 ft | 290 kts | 161° |
| 2026-05-05 07:03 | 35.64120 | 24.38655 | 7534 ft | 280 kts | 161° |
| 2026-05-05 07:03 | 35.62286 | 24.39350 | 7178 ft | 272 kts | 161° |
| 2026-05-05 07:03 | 35.60502 | 24.40027 | 6858 ft | 265 kts | 160° |
| 2026-05-05 07:04 | 35.58757 | 24.40685 | 6531 ft | 260 kts | 161° |
| 2026-05-05 07:04 | 35.57015 | 24.41270 | 6210 ft | 259 kts | 164° |
| 2026-05-05 07:04 | 35.55253 | 24.41708 | 5880 ft | 258 kts | 169° |
| 2026-05-05 07:04 | 35.53484 | 24.41953 | 5547 ft | 252 kts | 175° |
| 2026-05-05 07:05 | 35.51765 | 24.41996 | 5216 ft | 242 kts | 181° |
| 2026-05-05 07:05 | 35.50138 | 24.41859 | 4936 ft | 232 kts | 187° |
| 2026-05-05 07:05 | 35.48578 | 24.41570 | 4679 ft | 222 kts | 192° |
| 2026-05-05 07:05 | 35.47188 | 24.40867 | 4420 ft | 215 kts | 219° |
| 2026-05-05 07:06 | 35.46235 | 24.39517 | 4172 ft | 207 kts | 246° |
| 2026-05-05 07:06 | 35.45872 | 24.37854 | 3912 ft | 200 kts | 271° |
| 2026-05-05 07:06 | 35.46099 | 24.36212 | 3693 ft | 192 kts | 294° |
| 2026-05-05 07:06 | 35.46594 | 24.34737 | 3443 ft | 183 kts | 295° |
| 2026-05-05 07:07 | 35.47069 | 24.33314 | 3188 ft | 178 kts | 295° |
| 2026-05-05 07:07 | 35.47521 | 24.31951 | 2936 ft | 172 kts | 294° |
| 2026-05-05 07:07 | 35.47968 | 24.30605 | 2685 ft | 168 kts | 294° |
| 2026-05-05 07:07 | 35.48405 | 24.29293 | 2476 ft | 164 kts | 294° |
| 2026-05-05 07:08 | 35.48830 | 24.28010 | 2328 ft | 161 kts | 293° |
| 2026-05-05 07:08 | 35.49249 | 24.26747 | 2165 ft | 154 kts | 293° |
| 2026-05-05 07:08 | 35.49639 | 24.25573 | 1977 ft | 142 kts | 292° |
| 2026-05-05 07:08 | 35.49996 | 24.24491 | 1790 ft | 133 kts | 293° |
| 2026-05-05 07:09 | 35.50337 | 24.23456 | 1617 ft | 130 kts | 292° |
| 2026-05-05 07:09 | 35.50674 | 24.22434 | 1439 ft | 128 kts | 292° |
| 2026-05-05 07:09 | 35.51005 | 24.21434 | 1274 ft | 128 kts | 292° |
| 2026-05-05 07:09 | 35.51343 | 24.20415 | 1100 ft | 128 kts | 292° |
| 2026-05-05 07:10 | 35.51688 | 24.19409 | 926 ft | 127 kts | 295° |
| 2026-05-05 07:10 | 35.52049 | 24.18428 | 786 ft | 126 kts | 292° |
| 2026-05-05 07:10 | 35.52372 | 24.17425 | 637 ft | 127 kts | 291° |
| 2026-05-05 07:10 | 35.52695 | 24.16424 | 506 ft | 122 kts | 292° |
| 2026-05-05 07:11 | 35.52956 | 24.15632 | 491 ft | 75 kts | 292° |
| 2026-05-05 07:11 | 35.53094 | 24.15209 | 484 ft | 42 kts | 291° |
| 2026-05-05 07:11 | 35.53192 | 24.14905 | 487 ft | 36 kts | 292° |
| 2026-05-05 07:11 | 35.53282 | 24.14635 | 489 ft | 32 kts | 291° |
| 2026-05-05 07:12 | 35.53356 | 24.14407 | 493 ft | 22 kts | 291° |
| 2026-05-05 07:12 | 35.53398 | 24.14277 | 492 ft | 7 kts | 291° |
| 2026-05-05 07:12 | 35.53437 | 24.14263 | 496 ft | 6 kts | 22° |
| 2026-05-05 07:12 | 35.53481 | 24.14284 | 499 ft | 9 kts | 19° |
| 2026-05-05 07:13 | 35.53550 | 24.14315 | 495 ft | 11 kts | 21° |
| 2026-05-05 07:13 | 35.53617 | 24.14348 | 493 ft | 10 kts | 21° |
| 2026-05-05 07:13 | 35.53670 | 24.14364 | 488 ft | 6 kts | 341° |
| 2026-05-05 07:13 | 35.53698 | 24.14304 | 495 ft | 10 kts | 291° |
| 2026-05-05 07:14 | 35.53727 | 24.14215 | 495 ft | 13 kts | 292° |
| 2026-05-05 07:14 | 35.53765 | 24.14100 | 497 ft | 16 kts | 291° |
| 2026-05-05 07:14 | 35.53798 | 24.13997 | 490 ft | 12 kts | 291° |
| 2026-05-05 07:14 | 35.53820 | 24.13930 | 493 ft | 5 kts | 292° |
| 2026-05-05 07:15 | 35.53843 | 24.13922 | 493 ft | 4 kts | 13° |
| 2026-05-05 07:15 | 35.53872 | 24.13936 | 494 ft | 4 kts | 21° |
| 2026-05-05 07:15 | 35.53899 | 24.13948 | 498 ft | 3 kts | 21° |
| 2026-05-05 07:15 | 35.53903 | 24.13951 | 498 ft | 0 kts | 21° |
| 2026-05-05 07:23 | 35.53903 | 24.13950 | 498 ft | 0 kts | 21° |